Izhevsk, Russia
Current Conditions -  °F | °C
As of 10:30 AM on Sunday 21 Dec 2014 (Local Time) from UWKE Reporting Station
Moderate Snow Moderate Snow  
Wind Chill: 21°   Ceiling: 400
Heat Index: 32°   Visibility: 0.93mi
Dew Point: 30°   Wind: 16mph
Humidity: 93%   Direction: 180°S
Pressure: 29.5"   Gusts: NA
Location:  56.85°N, 53.23°E
Report Text: UWKE 210630Z 18007MPS 1500 SN OVC004 M00/M01 Q0999 NOSIG RMK QBB140 QFE732/0977 21421034
Loading
Personal Weather Stations






























Interactive Weather Map New forecast layout! Learn more

10-Day Weather Forecast

Advertisements
Track Severe Weather on mobile